Time;durP1;ratioP1;P1;durP2;ratioP2;P2;SDS_P1;SDS_P2;PMS_P1;PMS_P2;Temp;Humidity;BMP_temperature;BMP_pressure;BME280_temperature;BME280_humidity;BME280_pressure;Samples;Min_cycle;Max_cycle;Signal;HPM_P1;HPM_P2
2022/04/16 00:03:15;;;;;;;;;26.25;20.25;;;;;14.56;100.00;102269.78;4934744;28;45647;-85
2022/04/16 00:06:00;;;;;;;;;24.00;20.25;;;;;14.53;100.00;102269.09;4928537;28;44751;-85
2022/04/16 00:08:40;;;;;;;;;21.00;17.00;;;;;14.46;100.00;102267.72;4933227;28;44859;-87
2022/04/16 00:11:41;;;;;;;;;14.75;14.25;;;;;14.44;100.00;102267.78;4934523;28;44920;-86
2022/04/16 00:17:44;;;;;;;;;12.75;12.75;;;;;14.33;100.00;102270.25;4939050;28;44809;-86
2022/04/16 00:20:13;;;;;;;;;26.75;21.00;;;;;14.28;100.00;102262.50;4939816;28;44681;-85
2022/04/16 00:22:48;;;;;;;;;27.25;22.25;;;;;14.27;100.00;102266.13;4937941;28;44862;-87
2022/04/16 00:25:28;;;;;;;;;27.50;21.00;;;;;14.25;100.00;102268.00;4940314;28;45335;-85
2022/04/16 00:28:14;;;;;;;;;20.75;17.75;;;;;14.18;100.00;102250.59;4934803;28;44897;-85
2022/04/16 00:30:56;;;;;;;;;22.00;21.75;;;;;14.20;100.00;102261.19;4914486;28;44850;-84
2022/04/16 00:33:21;;;;;;;;;22.00;19.00;;;;;14.18;100.00;102257.75;4914761;28;45548;-86
2022/04/16 00:35:50;;;;;;;;;25.50;25.50;;;;;14.18;100.00;102263.13;4928018;28;44916;-86
2022/04/16 00:38:32;;;;;;;;;17.50;14.00;;;;;14.13;100.00;102252.69;4912359;28;44818;-86
2022/04/16 00:41:00;;;;;;;;;21.50;20.25;;;;;14.08;100.00;102255.63;4926568;28;45282;-88
2022/04/16 00:43:31;;;;;;;;;20.00;19.75;;;;;14.06;100.00;102254.81;4920345;28;45348;-86
2022/04/16 00:45:59;;;;;;;;;23.00;23.00;;;;;13.99;100.00;102269.50;4905904;29;45420;-86
2022/04/16 00:48:49;;;;;;;;;28.00;18.00;;;;;13.96;100.00;102256.31;4873787;29;44659;-87
2022/04/16 00:51:28;;;;;;;;;19.75;19.75;;;;;13.95;100.00;102259.06;4904495;29;44905;-86
2022/04/16 00:54:03;;;;;;;;;24.25;20.25;;;;;13.91;100.00;102247.69;4907183;28;44898;-85
2022/04/16 00:56:44;;;;;;;;;20.50;18.75;;;;;13.91;100.00;102254.84;4903911;28;46191;-86
2022/04/16 01:00:00;;;;;;;;;22.75;18.25;;;;;13.90;100.00;102248.66;4885758;29;45321;-88
2022/04/16 01:02:49;;;;;;;;;16.25;15.75;;;;;13.85;100.00;102246.22;4905165;28;44973;-85
2022/04/16 01:05:21;;;;;;;;;23.00;23.00;;;;;13.84;100.00;102254.34;4897292;28;45770;-83
2022/04/16 01:07:58;;;;;;;;;13.50;13.50;;;;;13.84;100.00;102246.34;4928238;28;45343;-86
2022/04/16 01:10:38;;;;;;;;;25.00;21.50;;;;;13.84;100.00;102241.84;4909606;28;44756;-86
2022/04/16 01:13:12;;;;;;;;;16.50;16.00;;;;;13.86;100.00;102247.94;4926415;28;45326;-85
2022/04/16 01:15:48;;;;;;;;;20.25;19.00;;;;;13.81;100.00;102251.84;4924043;28;45237;-86
2022/04/16 01:18:21;;;;;;;;;23.25;19.00;;;;;13.79;100.00;102249.25;4927004;28;45125;-85
2022/04/16 01:20:47;;;;;;;;;36.67;32.33;;;;;13.74;100.00;102237.97;4916192;28;44913;-86
2022/04/16 01:23:18;;;;;;;;;27.75;24.00;;;;;13.74;100.00;102245.97;4917443;28;45383;-87
2022/04/16 01:25:44;;;;;;;;;27.75;23.75;;;;;13.71;100.00;102248.81;4913431;28;44783;-85
2022/04/16 01:28:12;;;;;;;;;20.00;20.00;;;;;13.69;100.00;102249.88;4931826;28;45350;-86
2022/04/16 01:30:53;;;;;;;;;30.50;22.25;;;;;13.59;100.00;102253.03;4915032;28;44793;-87
2022/04/16 01:33:19;;;;;;;;;19.50;19.50;;;;;13.57;100.00;102251.38;4912177;28;44861;-87
2022/04/16 01:35:56;;;;;;;;;24.75;21.75;;;;;13.53;100.00;102253.34;4908101;28;45469;-87
2022/04/16 01:38:27;;;;;;;;;28.00;23.25;;;;;13.53;100.00;102250.69;4907966;28;45329;-85
2022/04/16 01:41:41;;;;;;;;;23.75;23.75;;;;;13.55;100.00;102248.81;4924557;28;45269;-87
2022/04/16 01:44:32;;;;;;;;;;;;;;;;;;;;;
2022/04/16 01:47:03;;;;;;;;;28.75;21.00;;;;;13.47;100.00;102255.50;4905339;28;70255;-85
2022/04/16 01:49:32;;;;;;;;;27.25;22.00;;;;;13.44;100.00;102251.22;4907555;29;47259;-85
2022/04/16 01:52:03;;;;;;;;;24.25;21.00;;;;;13.43;100.00;102254.81;4890031;29;44834;-87
2022/04/16 01:55:12;;;;;;;;;26.00;24.75;;;;;13.40;100.00;102262.16;4909517;29;44802;-86
2022/04/16 01:57:47;;;;;;;;;25.25;25.25;;;;;13.30;100.00;102257.31;4891373;29;45071;-86
2022/04/16 02:00:33;;;;;;;;;29.75;28.50;;;;;13.26;100.00;102262.91;4887000;29;46800;-86
2022/04/16 02:06:27;;;;;;;;;22.25;20.75;;;;;13.16;100.00;102272.31;4882726;29;45443;-85
2022/04/16 02:12:39;;;;;;;;;32.00;27.00;;;;;13.10;100.00;102265.47;4874426;29;46815;-86
2022/04/16 02:19:03;;;;;;;;;33.25;32.50;;;;;12.89;100.00;102278.13;4830674;29;44789;-87
2022/04/16 02:22:12;;;;;;;;;33.00;32.67;;;;;12.86;100.00;102267.59;4818290;29;45554;-87
2022/04/16 02:24:45;;;;;;;;;30.67;26.67;;;;;12.77;100.00;102274.31;4826745;29;45092;-88
2022/04/16 02:27:28;;;;;;;;;22.00;22.00;;;;;12.72;100.00;102265.69;4834168;29;45425;-88
2022/04/16 02:30:21;;;;;;;;;28.25;26.75;;;;;12.73;100.00;102266.53;4821812;29;44789;-88
2022/04/16 02:33:06;;;;;;;;;27.67;27.67;;;;;12.69;100.00;102259.63;4835596;29;46488;-87
2022/04/16 02:35:55;;;;;;;;;37.00;30.00;;;;;12.66;100.00;102273.13;4835127;29;45211;-87
2022/04/16 02:38:32;;;;;;;;;34.00;27.25;;;;;12.61;100.00;102268.88;4834067;29;45334;-87
2022/04/16 02:41:06;;;;;;;;;35.33;31.33;;;;;12.59;100.00;102277.91;4830974;29;44776;-87
2022/04/16 02:43:58;;;;;;;;;;;;;;;;;;;;;
2022/04/16 02:49:38;;;;;;;;;40.00;33.00;;;;;12.51;100.00;102282.75;4889600;29;45358;-87
2022/04/16 02:55:30;;;;;;;;;;;;;;;;;;;;;
2022/04/16 02:58:42;;;;;;;;;;;;;;;;;;;;;
2022/04/16 03:01:44;;;;;;;;;33.67;29.67;;;;;12.33;100.00;102277.41;4857943;29;72056;-86
2022/04/16 03:04:20;;;;;;;;;35.33;29.67;;;;;12.28;100.00;102271.47;4867219;29;45339;-88
2022/04/16 03:10:23;;;;;;;;;32.00;29.33;;;;;12.23;100.00;102270.81;4860601;29;45527;-86
2022/04/16 03:20:37;;;;;;;;;39.33;33.00;;;;;12.12;100.00;102269.59;4747483;30;44926;-87
2022/04/16 03:23:09;;;;;;;;;40.33;33.00;;;;;12.06;100.00;102270.78;4755452;29;45050;-88
2022/04/16 03:25:49;;;;;;;;;35.67;32.33;;;;;12.02;100.00;102272.72;4739089;30;44876;-86
2022/04/16 03:28:22;;;;;;;;;33.67;30.00;;;;;12.00;100.00;102274.59;4755475;30;44882;-87
2022/04/16 03:31:05;;;;;;;;;;;;;;;;;;;;;
2022/04/16 03:33:40;;;;;;;;;31.67;30.00;;;;;11.96;100.00;102266.84;4731874;30;74618;-87
2022/04/16 03:36:12;;;;;;;;;37.00;32.67;;;;;11.91;100.00;102267.06;4767587;29;44783;-87
2022/04/16 03:39:23;;;;;;;;;33.67;28.33;;;;;11.88;100.00;102275.19;4783547;29;44782;-88
2022/04/16 03:45:53;;;;;;;;;42.67;35.00;;;;;11.83;100.00;102269.22;4814269;29;45121;-89
2022/04/16 03:48:32;;;;;;;;;35.33;33.00;;;;;11.86;100.00;102265.56;4792428;29;44819;-88
2022/04/16 03:51:24;;;;;;;;;37.67;32.00;;;;;11.83;100.00;102283.38;4792038;29;44985;-88
2022/04/16 03:59:59;;;;;;;;;37.00;32.67;;;;;11.81;100.00;102253.28;4863710;29;45384;-87
2022/04/16 04:02:30;;;;;;;;;44.67;36.00;;;;;11.80;100.00;102258.69;4864081;29;45349;-88
2022/04/16 04:04:59;;;;;;;;;36.67;32.00;;;;;11.78;100.00;102258.75;4850896;29;44874;-87
2022/04/16 04:07:38;;;;;;;;;39.00;32.00;;;;;11.77;100.00;102256.16;4867082;29;45477;-87
2022/04/16 04:10:14;;;;;;;;;44.33;33.00;;;;;11.77;100.00;102258.81;4873124;29;44748;-87
2022/04/16 04:12:49;;;;;;;;;37.33;34.00;;;;;11.77;100.00;102257.03;4864440;29;44767;-87
2022/04/16 04:15:14;;;;;;;;;36.33;30.67;;;;;11.79;100.00;102264.94;4873614;29;45018;-85
2022/04/16 04:18:04;;;;;;;;;35.00;30.67;;;;;11.76;100.00;102265.09;4869533;29;45275;-86
2022/04/16 04:20:48;;;;;;;;;41.00;34.00;;;;;11.73;100.00;102260.75;4851419;29;45250;-87
2022/04/16 04:23:31;;;;;;;;;33.00;29.33;;;;;11.74;100.00;102270.47;4866471;29;45400;-86
2022/04/16 04:26:13;;;;;;;;;36.33;31.67;;;;;11.73;100.00;102273.22;4851886;29;45021;-87
2022/04/16 04:29:08;;;;;;;;;34.00;29.33;;;;;11.69;100.00;102272.47;4867641;29;45453;-88
2022/04/16 04:31:48;;;;;;;;;30.33;29.33;;;;;11.67;100.00;102277.03;4867241;29;44786;-86
2022/04/16 04:34:22;;;;;;;;;30.67;29.33;;;;;11.65;100.00;102278.88;4834459;29;44819;-88
2022/04/16 04:36:51;;;;;;;;;36.33;33.00;;;;;11.65;100.00;102278.88;4852061;29;44816;-89
2022/04/16 04:40:16;;;;;;;;;;;;;;;;;;;;;
2022/04/16 04:43:01;;;;;;;;;30.00;26.00;;;;;11.59;100.00;102282.69;4910651;28;45374;-87
2022/04/16 04:45:28;;;;;;;;;35.00;30.67;;;;;11.59;100.00;102285.34;4904054;29;45303;-88
2022/04/16 04:47:53;;;;;;;;;46.33;35.67;;;;;11.59;100.00;102284.50;4896206;29;44933;-86
2022/04/16 04:50:25;;;;;;;;;39.33;33.00;;;;;11.58;100.00;102285.44;4910122;29;45150;-88
2022/04/16 04:52:53;;;;;;;;;42.00;36.00;;;;;11.53;100.00;102285.66;4877281;29;44858;-88
2022/04/16 04:55:19;;;;;;;;;40.67;35.33;;;;;11.51;100.00;102284.00;4906461;29;45268;-88
2022/04/16 04:57:54;;;;;;;;;41.33;35.33;;;;;11.51;100.00;102274.22;4889525;29;44897;-89
2022/04/16 05:00:24;;;;;;;;;42.33;34.67;;;;;11.49;100.00;102278.75;4892527;29;45414;-89
2022/04/16 05:02:50;;;;;;;;;35.67;32.00;;;;;11.44;100.00;102279.88;4889422;29;44800;-87
2022/04/16 05:05:17;;;;;;;;;30.67;29.00;;;;;11.45;100.00;102289.59;4890357;29;44805;-89
2022/04/16 05:07:45;;;;;;;;;33.33;30.67;;;;;11.43;100.00;102283.50;4873674;29;45215;-88
2022/04/16 05:10:23;;;;;;;;;29.33;29.00;;;;;11.43;100.00;102291.47;4890111;29;45310;-88
2022/04/16 05:12:55;;;;;;;;;34.00;31.67;;;;;11.46;100.00;102291.31;4901165;29;44658;-89
2022/04/16 05:15:21;;;;;;;;;41.00;33.67;;;;;11.46;100.00;102293.97;4889670;29;44748;-89
2022/04/16 05:17:47;;;;;;;;;40.67;32.33;;;;;11.49;100.00;102281.41;4888375;29;45360;-88
2022/04/16 05:20:18;;;;;;;;;39.33;32.00;;;;;11.57;100.00;102300.56;4887838;29;45362;-87
2022/04/16 05:23:12;;;;;;;;;;;;;;;;;;;;;
2022/04/16 05:25:54;;;;;;;;;44.00;35.67;;;;;11.67;100.00;102311.63;4890222;29;67988;-89
2022/04/16 05:28:26;;;;;;;;;28.67;25.00;;;;;11.67;100.00;102313.44;4885784;29;44938;-88
2022/04/16 05:30:58;;;;;;;;;41.33;34.00;;;;;11.64;100.00;102313.56;4871856;29;45448;-89
2022/04/16 05:36:20;;;;;;;;;39.33;33.33;;;;;11.53;100.00;102306.94;4890296;29;44798;-88
2022/04/16 05:38:46;;;;;;;;;33.33;31.33;;;;;11.50;100.00;102319.53;4889133;29;45252;-89
2022/04/16 05:41:12;;;;;;;;;40.00;35.00;;;;;11.53;100.00;102322.06;4888562;29;45574;-89
2022/04/16 05:43:53;;;;;;;;;41.00;36.00;;;;;11.55;100.00;102330.81;4857809;29;45305;-89
2022/04/16 05:46:34;;;;;;;;;;;;;;;;;;;;;
2022/04/16 05:49:02;;;;;;;;;41.67;35.67;;;;;11.51;100.00;102330.13;4894663;29;69153;-89
2022/04/16 05:51:52;;;;;;;;;44.00;34.33;;;;;11.49;100.00;102331.97;4878888;29;46857;-87
2022/04/16 05:54:25;;;;;;;;;42.00;35.00;;;;;11.52;100.00;102336.31;4893227;29;44774;-88
2022/04/16 05:57:00;;;;;;;;;38.67;33.67;;;;;11.58;100.00;102336.00;4876570;29;45363;-88
2022/04/16 05:59:35;;;;;;;;;43.33;36.00;;;;;11.63;100.00;102338.47;4892692;29;45290;-89
2022/04/16 06:02:01;;;;;;;;;45.00;36.67;;;;;11.71;100.00;102334.53;4861504;29;45236;-87
2022/04/16 06:04:29;;;;;;;;;40.67;35.00;;;;;11.85;100.00;102335.72;4892115;29;45365;-89
2022/04/16 06:07:05;;;;;;;;;47.33;36.67;;;;;11.95;100.00;102343.22;4871533;29;44923;-88
2022/04/16 06:09:42;;;;;;;;;47.33;37.33;;;;;12.05;100.00;102339.16;4872016;29;45423;-88
2022/04/16 06:12:25;;;;;;;;;;;;;;;;;;;;;
2022/04/16 06:14:54;;;;;;;;;39.00;33.33;;;;;12.06;100.00;102351.53;4886701;29;72906;-89
2022/04/16 06:17:24;;;;;;;;;38.33;33.00;;;;;12.09;100.00;102353.22;4870677;29;44865;-89
2022/04/16 06:20:07;;;;;;;;;41.33;35.67;;;;;12.12;100.00;102350.38;4871120;29;44920;-90
2022/04/16 06:22:59;;;;;;;;;43.00;37.33;;;;;12.24;100.00;102341.81;4895286;29;45450;-88
2022/04/16 06:25:27;;;;;;;;;42.67;34.33;;;;;12.32;100.00;102358.28;4864897;29;45202;-89
2022/04/16 06:28:30;;;;;;;;;47.67;39.33;;;;;12.45;100.00;102355.03;4893165;29;44916;-88
2022/04/16 06:31:27;;;;;;;;;49.33;36.67;;;;;12.72;100.00;102364.34;4896765;29;44954;-90
2022/04/16 06:34:04;;;;;;;;;46.67;38.33;;;;;12.72;100.00;102348.34;4878133;29;45744;-88
2022/04/16 06:36:48;;;;;;;;;45.33;42.00;;;;;12.89;100.00;102351.97;4905389;29;44821;-88
2022/04/16 06:39:21;;;;;;;;;39.33;36.67;;;;;13.06;100.00;102352.84;4890799;29;45333;-89
2022/04/16 06:41:48;;;;;;;;;55.00;43.00;;;;;13.04;100.00;102359.16;4907753;29;44858;-90
2022/04/16 07:03:13;;;;;;;;;34.00;28.67;;;;;13.61;100.00;102347.28;4785171;23;46447;-90
2022/04/16 07:06:05;;;;;;;;;40.33;33.67;;;;;13.65;100.00;102345.31;4951719;28;45286;-86
2022/04/16 07:09:10;;;;;;;;;;;;;;;;;;;;;
2022/04/16 07:12:09;;;;;;;;;54.33;42.00;;;;;13.64;100.00;102340.91;4962562;28;68343;-88
2022/04/16 07:14:52;;;;;;;;;39.33;34.67;;;;;13.66;100.00;102347.03;4947965;28;45243;-86
2022/04/16 07:17:22;;;;;;;;;52.67;39.00;;;;;13.47;100.00;102332.94;4932152;28;45462;-88
2022/04/16 07:19:50;;;;;;;;;43.33;36.67;;;;;13.59;100.00;102342.97;4951277;28;44749;-86
2022/04/16 07:22:19;;;;;;;;;47.67;36.67;;;;;13.80;100.00;102327.59;4950079;28;45425;-87
2022/04/16 07:24:49;;;;;;;;;49.00;40.33;;;;;13.82;100.00;102323.88;4964377;28;44844;-88
2022/04/16 07:27:23;;;;;;;;;45.33;40.00;;;;;13.99;100.00;102330.97;4945541;28;45093;-86
2022/04/16 07:29:58;;;;;;;;;52.33;40.00;;;;;13.97;100.00;102331.97;4947730;28;44844;-87
2022/04/16 07:32:31;;;;;;;;;37.33;30.33;;;;;14.01;100.00;102328.19;4969077;28;44819;-86
2022/04/16 07:35:02;;;;;;;;;38.67;36.67;;;;;14.13;100.00;102331.06;4938361;28;44904;-85
2022/04/16 07:37:33;;;;;;;;;35.33;29.33;;;;;14.03;100.00;102329.84;4955598;28;45117;-87
2022/04/16 07:40:14;;;;;;;;;47.00;36.67;;;;;13.92;100.00;102334.91;4965147;28;45319;-88
2022/04/16 07:42:49;;;;;;;;;53.00;42.00;;;;;13.92;100.00;102334.03;4947883;28;45581;-89
2022/04/16 07:45:17;;;;;;;;;39.00;33.00;;;;;13.98;100.00;102337.25;4966316;28;45386;-88
2022/04/16 07:47:42;;;;;;;;;36.00;26.67;;;;;14.11;100.00;102337.41;4952340;28;45137;-88
2022/04/16 07:57:10;;;;;;;;;40.00;36.75;;;;;14.65;100.00;102354.84;4881377;29;44840;-88
2022/04/16 07:59:47;;;;;;;;;49.00;38.00;;;;;14.91;100.00;102355.13;4881244;29;46876;-88
2022/04/16 08:02:35;;;;;;;;;;;;;;;;;;;;;
2022/04/16 08:05:41;;;;;;;;;37.33;32.00;;;;;14.86;100.00;102354.53;4841085;29;68962;-88
2022/04/16 08:08:32;;;;;;;;;41.33;35.00;;;;;14.86;100.00;102359.88;4826475;29;44866;-88
2022/04/16 08:11:43;;;;;;;;;42.00;34.33;;;;;14.73;100.00;102366.91;4821687;29;45546;-87
2022/04/16 08:15:16;;;;;;;;;;;;;;;;;;;;;
2022/04/16 08:21:14;;;;;;;;;41.25;32.25;;;;;14.98;100.00;102360.97;4770325;29;44847;-86
2022/04/16 08:23:56;;;;;;;;;37.50;33.00;;;;;15.22;100.00;102372.00;4768003;29;45048;-87
2022/04/16 08:26:48;;;;;;;;;43.33;37.00;;;;;15.11;100.00;102360.13;4767898;29;44948;-87
2022/04/16 08:30:12;;;;;;;;;;;;;;;;;;;;;
2022/04/16 08:33:16;;;;;;;;;32.00;32.00;;;;;15.15;100.00;102368.84;4769122;29;69101;-87
2022/04/16 08:43:42;;;;;;;;;38.50;27.00;;;;;15.50;100.00;102369.38;4703122;30;44886;-87
2022/04/16 08:46:29;;;;;;;;;34.50;29.75;;;;;15.54;100.00;102367.38;4650312;30;45327;-88
2022/04/16 08:49:36;;;;;;;;;27.25;27.00;;;;;15.81;100.00;102371.06;4663942;30;45387;-87
2022/04/16 08:55:12;;;;;;;;;37.67;33.00;;;;;15.78;100.00;102379.28;4701229;30;44854;-86
2022/04/16 08:57:57;;;;;;;;;;;;;;;;;;;;;
2022/04/16 09:01:33;;;;;;;;;36.00;30.00;;;;;16.15;100.00;102379.63;4703644;30;74448;-87
2022/04/16 09:04:36;;;;;;;;;28.50;27.00;;;;;16.35;100.00;102376.53;4704667;30;44887;-86
2022/04/16 09:07:07;;;;;;;;;36.75;31.50;;;;;16.53;100.00;102376.25;4705603;30;45422;-88
2022/04/16 09:09:34;;;;;;;;;26.25;23.50;;;;;16.66;100.00;102372.66;4709479;30;44908;-87
2022/04/16 09:16:06;;;;;;;;;40.50;34.00;;;;;16.66;100.00;102367.31;4706704;30;44765;-87
2022/04/16 09:19:28;;;;;;;;;35.25;32.50;;;;;16.68;100.00;102367.19;4723389;30;44792;-87
2022/04/16 09:22:05;;;;;;;;;31.75;30.00;;;;;16.77;100.00;102366.63;4732662;30;44861;-87
2022/04/16 09:24:49;;;;;;;;;34.25;30.00;;;;;16.88;100.00;102377.50;4742162;30;45433;-86
2022/04/16 09:27:28;;;;;;;;;28.00;25.75;;;;;16.87;100.00;102369.53;4740632;30;44761;-87
2022/04/16 09:30:07;;;;;;;;;22.00;14.25;;;;;16.83;100.00;102363.53;4824354;29;44925;-87
2022/04/16 09:36:38;;;;;;;;;;;;;;;;;;;;;
2022/04/16 09:39:32;;;;;;;;;27.25;25.00;;;;;17.03;100.00;102358.63;4817338;29;72133;-88
2022/04/16 09:42:09;;;;;;;;;21.50;18.00;;;;;17.01;100.00;102350.66;4814478;29;45508;-88
2022/04/16 09:49:21;;;;;;;;;23.00;22.25;;;;;17.36;100.00;102337.50;4765367;29;45128;-87
2022/04/16 09:52:27;;;;;;;;;26.00;22.00;;;;;17.59;100.00;102343.06;4782806;29;44812;-89
2022/04/16 09:58:35;;;;;;;;;19.00;17.75;;;;;17.51;100.00;102342.78;4803813;29;45304;-87
2022/04/16 10:01:01;;;;;;;;;22.25;20.00;;;;;17.54;100.00;102343.41;4791543;29;46485;-88
2022/04/16 10:03:34;;;;;;;;;23.60;21.80;;;;;17.52;100.00;102344.50;4789161;29;45406;-87
2022/04/16 10:06:51;;;;;;;;;21.25;16.25;;;;;17.69;100.00;102336.91;4837063;29;45330;-87
2022/04/16 10:09:35;;;;;;;;;22.50;19.50;;;;;17.63;100.00;102333.81;4762877;29;44882;-88
2022/04/16 10:15:38;;;;;;;;;16.80;16.80;;;;;17.85;100.00;102343.94;4765342;29;44926;-86
2022/04/16 10:18:32;;;;;;;;;6.00;4.20;;;;;17.94;100.00;102336.06;4753754;29;45430;-87
2022/04/16 10:25:15;;;;;;;;;22.20;17.40;;;;;17.72;100.00;102354.69;4706203;30;45564;-88
2022/04/16 10:28:27;;;;;;;;;;;;;;;;;;;;;
2022/04/16 10:31:11;;;;;;;;;18.40;16.80;;;;;17.96;100.00;102362.84;4734305;30;69750;-88
2022/04/16 10:33:42;;;;;;;;;28.75;21.50;;;;;17.89;100.00;102348.09;4709998;30;45547;-88
2022/04/16 10:36:59;;;;;;;;;16.50;15.75;;;;;17.92;100.00;102343.38;4725463;30;46614;-90
2022/04/16 10:39:31;;;;;;;;;20.20;19.80;;;;;18.09;100.00;102341.31;4731681;30;44816;-87
2022/04/16 10:42:13;;;;;;;;;14.00;6.00;;;;;18.01;100.00;102333.78;4749122;29;44659;-88
2022/04/16 10:45:25;;;;;;;;;27.75;21.00;;;;;17.83;100.00;102338.66;4812203;29;45462;-88
2022/04/16 10:47:57;;;;;;;;;14.80;12.40;;;;;17.60;100.00;102345.66;4795253;29;46738;-87
2022/04/16 11:01:58;;;;;;;;;;;;;;;;;;;;;
2022/04/16 11:37:58;;;;;;;;;;;;;;;;;;;;;
2022/04/16 11:48:10;;;;;;;;;20.60;18.20;;;;;18.88;100.00;102340.75;4756055;29;44878;-86
2022/04/16 11:55:10;;;;;;;;;;;;;;;;;;;;;
2022/04/16 11:58:33;;;;;;;;;20.25;17.00;;;;;19.24;96.96;102320.00;4689565;30;74070;-87
2022/04/16 12:02:00;;;;;;;;;;;;;;;;;;;;;
2022/04/16 12:16:05;;;;;;;;;;;;;;;;;;;;;
2022/04/16 12:22:30;;;;;;;;;;;;;;;;;;;;;
2022/04/16 13:15:39;;;;;;;;;9.00;6.25;;;;;20.41;85.64;102293.44;5488655;22;19603180;-88
2022/04/16 13:19:00;;;;;;;;;15.40;9.20;;;;;20.16;82.18;102288.34;6216090;22;45241;-88
2022/04/16 13:28:58;;;;;;;;;6.60;6.60;;;;;20.62;82.61;102279.13;6135583;23;45541;-87
2022/04/16 13:32:22;;;;;;;;;8.40;6.80;;;;;20.62;81.11;102277.28;6112134;23;46777;-86
2022/04/16 13:35:23;;;;;;;;;8.00;6.20;;;;;20.66;82.47;102275.19;6031291;23;44792;-88
2022/04/16 13:41:41;;;;;;;;;7.60;7.20;;;;;20.79;78.50;102276.72;5957625;23;45528;-86
2022/04/16 13:44:17;;;;;;;;;5.80;5.80;;;;;21.21;78.24;102265.84;5957585;23;45171;-88
2022/04/16 13:46:46;;;;;;;;;7.20;6.20;;;;;21.63;77.31;102267.63;5953086;23;44817;-88
2022/04/16 13:49:45;;;;;;;;;8.00;6.80;;;;;21.60;77.73;102268.75;5934646;23;45221;-89
2022/04/16 13:52:49;;;;;;;;;5.40;5.20;;;;;21.90;78.99;102256.16;5933906;23;44854;-88
2022/04/16 14:14:59;;;;;;;;;;;;;;;;;;;;;
2022/04/16 14:28:47;;;;;;;;;7.80;7.80;;;;;24.02;57.40;102243.13;5768839;24;44861;-88
2022/04/16 14:31:55;;;;;;;;;;;;;;;;;;;;;
2022/04/16 14:45:48;;;;;;;;;;;;;;;;;;;;;
2022/04/16 14:51:57;;;;;;;;;4.40;4.20;;;;;24.33;54.10;102225.47;5726265;24;44843;-88
2022/04/16 14:54:48;;;;;;;;;3.60;3.60;;;;;24.44;59.15;102227.09;5744998;24;44866;-89
2022/04/16 14:57:54;;;;;;;;;4.20;4.20;;;;;24.92;59.08;102220.31;5735969;24;44897;-88
2022/04/16 15:01:17;;;;;;;;;;;;;;;;;;;;;
2022/04/16 15:03:51;;;;;;;;;5.80;4.00;;;;;25.40;47.45;102226.22;5974133;23;72696;-87
2022/04/16 15:07:01;;;;;;;;;3.00;3.00;;;;;25.41;46.57;102219.75;6071338;23;44741;-88
2022/04/16 15:13:41;;;;;;;;;4.40;3.00;;;;;25.69;48.46;102232.09;5902395;24;45368;-88
2022/04/16 15:20:31;;;;;;;;;;;;;;;;;;;;;
2022/04/16 15:23:25;;;;;;;;;4.00;4.00;;;;;26.03;41.51;102209.41;6006794;23;69325;-88
2022/04/16 15:26:42;;;;;;;;;;;;;;;;;;;;;
2022/04/16 15:32:49;;;;;;;;;;;;;;;;;;;;;
2022/04/16 15:39:27;;;;;;;;;3.00;3.00;;;;;25.09;40.23;102204.97;5990199;23;44996;-88
2022/04/16 15:42:01;;;;;;;;;3.00;3.00;;;;;25.49;41.96;102200.72;6011837;23;44699;-89
2022/04/16 15:45:20;;;;;;;;;5.40;4.20;;;;;25.77;40.58;102193.16;6019507;23;44830;-87
2022/04/16 15:48:56;;;;;;;;;;;;;;;;;;;;;
2022/04/16 15:52:12;;;;;;;;;4.00;4.00;;;;;26.48;38.26;102203.47;6098671;23;76107;-88
2022/04/16 15:54:38;;;;;;;;;5.00;5.00;;;;;26.56;41.64;102191.72;6098484;23;44824;-89
2022/04/16 15:57:04;;;;;;;;;4.25;4.25;;;;;26.68;38.60;102209.41;6099973;23;44730;-87
2022/04/16 16:10:19;;;;;;;;;7.60;6.40;;;;;26.84;41.97;102184.00;6125210;23;44785;-89
2022/04/16 16:16:34;;;;;;;;;4.40;4.40;;;;;25.22;48.47;102193.66;5982589;23;45022;-88
2022/04/16 16:19:26;;;;;;;;;4.40;4.40;;;;;25.19;52.26;102196.69;5962351;23;44858;-89
2022/04/16 16:22:27;;;;;;;;;4.20;4.20;;;;;25.16;44.89;102194.31;5966144;23;44791;-88
2022/04/16 16:29:05;;;;;;;;;3.00;3.00;;;;;25.40;51.75;102179.94;5935521;24;45190;-86
2022/04/16 16:35:21;;;;;;;;;4.80;4.40;;;;;24.88;43.67;102191.75;5916246;24;44855;-87
2022/04/16 16:38:32;;;;;;;;;5.80;4.40;;;;;24.68;45.73;102190.25;5874120;24;44865;-87
2022/04/16 16:47:48;;;;;;;;;4.00;4.00;;;;;24.11;49.79;102185.19;5858281;23;44795;-88
2022/04/16 16:54:31;;;;;;;;;2.60;2.60;;;;;24.16;51.86;102184.72;5965318;23;45579;-89
2022/04/16 17:07:47;;;;;;;;;3.20;2.80;;;;;24.20;51.11;102195.13;6017770;23;45034;-89
2022/04/16 17:41:04;;;;;;;;;3.25;3.25;;;;;22.74;56.68;102194.19;6220753;22;1464595;-91
2022/04/16 17:47:57;;;;;;;;;1.00;1.00;;;;;23.13;57.12;102202.22;6283177;22;45416;-91
2022/04/16 17:58:04;;;;;;;;;;;;;;;;;;;;;
2022/04/16 18:05:13;;;;;;;;;3.80;3.00;;;;;23.27;55.54;102201.72;5937284;24;44719;-90
2022/04/16 18:15:09;;;;;;;;;3.00;3.00;;;;;21.30;63.95;102189.38;5773185;24;45069;-88
2022/04/16 18:18:24;;;;;;;;;5.40;5.40;;;;;20.66;67.16;102192.31;5780872;24;44944;-90
2022/04/16 18:25:36;;;;;;;;;5.00;5.00;;;;;19.37;74.39;102204.00;5745199;24;44911;-90
2022/04/16 18:35:13;;;;;;;;;3.00;3.00;;;;;18.53;82.06;102202.56;5915365;24;44756;-89
2022/04/16 18:41:00;;;;;;;;;3.00;3.00;;;;;18.14;85.49;102212.72;5940911;24;44960;-90
2022/04/16 18:43:41;;;;;;;;;4.40;4.00;;;;;18.01;85.87;102212.75;5938952;24;44788;-89
2022/04/16 18:46:54;;;;;;;;;;;;;;;;;;;;;
2022/04/16 18:53:06;;;;;;;;;2.60;2.60;;;;;17.67;90.22;102211.69;5909124;24;45471;-90
2022/04/16 18:56:02;;;;;;;;;5.00;3.40;;;;;17.60;89.38;102211.28;5963630;23;44751;-91
2022/04/16 18:59:09;;;;;;;;;;;;;;;;;;;;;
2022/04/16 19:07:44;;;;;;;;;6.40;6.40;;;;;17.34;93.77;102236.47;6014540;23;44757;-90
2022/04/16 19:10:21;;;;;;;;;5.20;5.20;;;;;17.27;93.32;102236.06;5989865;23;44798;-90
2022/04/16 19:13:18;;;;;;;;;9.40;7.40;;;;;17.20;92.00;102242.84;5991342;23;44852;-90
2022/04/16 19:15:47;;;;;;;;;6.80;5.60;;;;;17.14;95.19;102243.28;5969245;23;45323;-90
2022/04/16 19:18:35;;;;;;;;;;;;;;;;;;;;;
2022/04/16 19:21:20;;;;;;;;;6.20;6.20;;;;;17.00;89.20;102259.50;5960527;23;44695;-90
2022/04/16 19:23:55;;;;;;;;;7.00;7.00;;;;;16.96;95.09;102250.78;5980048;23;44722;-91
2022/04/16 19:26:51;;;;;;;;;7.40;7.40;;;;;16.92;96.71;102255.53;5958367;23;45087;-88
2022/04/16 19:32:43;;;;;;;;;4.60;4.60;;;;;16.80;97.26;102253.69;6021037;23;44739;-89
2022/04/16 19:35:24;;;;;;;;;8.20;7.00;;;;;16.75;93.06;102249.59;5993174;23;44821;-90
2022/04/16 19:39:01;;;;;;;;;;;;;;;;;;;;;
2022/04/16 19:41:44;;;;;;;;;7.00;7.00;;;;;16.66;97.90;102259.97;6061219;23;72665;-89
2022/04/16 19:45:04;;;;;;;;;7.60;7.60;;;;;16.63;98.41;102264.66;6088265;23;44758;-90
2022/04/16 19:47:59;;;;;;;;;12.50;9.25;;;;;16.55;96.69;102259.84;6065284;23;44910;-90
2022/04/16 20:05:14;;;;;;;;;;;;;;;;;;;;;
2022/04/16 20:10:42;;;;;;;;;6.00;6.00;;;;;16.17;100.00;102270.44;5962677;23;72988;-89
2022/04/16 20:10:56;;;;;;;;;7.20;7.20;;;;;16.10;100.00;102267.31;5942305;23;45289;-91
2022/04/16 20:16:56;;;;;;;;;7.40;4.60;;;;;15.92;100.00;102255.13;5958633;23;45293;-90
2022/04/16 20:19:31;;;;;;;;;6.00;6.00;;;;;15.87;100.00;102252.75;5954190;23;45395;-89
2022/04/16 20:22:14;;;;;;;;;;;;;;;;;;;;;
2022/04/16 20:24:55;;;;;;;;;5.80;4.80;;;;;15.75;100.00;102245.47;5981933;23;44837;-89
2022/04/16 20:27:36;;;;;;;;;;;;;;;;;;;;;
2022/04/16 20:30:20;;;;;;;;;4.40;4.40;;;;;15.66;100.00;102244.28;5986617;23;72851;-90
2022/04/16 20:32:50;;;;;;;;;4.40;3.80;;;;;15.61;100.00;102235.63;6043330;23;44726;-90
2022/04/16 20:35:33;;;;;;;;;5.50;5.50;;;;;15.59;100.00;102242.03;6024131;23;44845;-90
2022/04/16 20:38:01;;;;;;;;;7.60;6.40;;;;;15.52;100.00;102230.88;6050484;23;46231;-89
2022/04/16 20:46:18;;;;;;;;;7.75;6.75;;;;;15.37;100.00;102223.78;6108269;23;45301;-90